Marinicki — 9HWU9 — position and weather

sailwx.info

Track history (hours):
 
Tides and Currents Weather Stations Pressure Air Temp Water Temp Dewpoint Dewpoint Depression Visibility Wind Speed Wind Dir Waves Ship Positions

Marinicki

Last reported at 2014-Sep-30 09:03 UTC. Time now 2014-Oct-01 20:20 UTC.
Position N 36°48' W 075°40'.

Length 218 m; draft 12.6 m.

Type: Ship. MMSI: 249650000.

Date/timePositionNaut miles runAvg speedWind from/ knotsBaromVisibWave heightAir tempDewpointWater temp
2014-Sep-30 09:03N 36°48' W 075°40'1610.5
2014-Sep-30 07:33N 36°56' W 075°57'1010.3
2014-Sep-30 06:33N 36°59' W 076°09'9 9.4
2014-Sep-30 05:33N 36°58' W 076°21'4 0.9
2014-Sep-30 01:07N 36°58' W 076°26'0 0.0
2014-Sep-30 00:19N 36°58' W 076°26'0 0.0
2014-Sep-29 20:19N 36°58' W 076°26'0 0.0
2014-Sep-29 18:25N 36°58' W 076°26'0 0.0
2014-Sep-29 11:04N 36°58' W 076°26'0 0.0
2014-Sep-29 10:31N 36°58' W 076°26'0 0.0
2014-Sep-29 09:31N 36°58' W 076°26'0 0.0
2014-Sep-29 08:31N 36°58' W 076°26'0 0.0
2014-Sep-29 07:31N 36°58' W 076°26'0 0.0
2014-Sep-29 06:31N 36°58' W 076°26'0 0.0
2014-Sep-29 05:31N 36°58' W 076°26'0 0.0
2014-Sep-29 04:31N 36°58' W 076°26'0 0.0
2014-Sep-29 03:28N 36°58' W 076°26'0 0.0
2014-Sep-29 02:28N 36°58' W 076°26'0 0.0
2014-Sep-29 01:31N 36°58' W 076°26'1 1.4
2014-Sep-29 00:33N 36°57' W 076°24'10 9.8
2014-Sep-28 23:32N 36°60' W 076°12'7 1.2
2014-Sep-28 17:09N 36°57' W 076°04'0 0.0
2014-Sep-28 13:33N 36°57' W 076°04'0 0.1
2014-Sep-28 12:27N 36°57' W 076°03'0 0.0
2014-Sep-28 11:27N 36°57' W 076°03'0 0.0
2014-Sep-28 10:30N 36°57' W 076°03'0 0.0
2014-Sep-28 09:27N 36°57' W 076°03'0 0.0
2014-Sep-28 08:15N 36°57' W 076°03'0 0.1
2014-Sep-28 04:30N 36°57' W 076°04'0 0.0
2014-Sep-28 03:15N 36°57' W 076°04'0 0.0
2014-Sep-27 21:33N 36°57' W 076°03'0 0.1
2014-Sep-27 17:33N 36°57' W 076°04'0 0.0
2014-Sep-27 16:27N 36°57' W 076°04'0 0.0
2014-Sep-27 14:12N 36°57' W 076°04'0 0.0
2014-Sep-27 13:09N 36°57' W 076°04'0 0.0
2014-Sep-27 06:33N 36°57' W 076°04'0 0.1
2014-Sep-27 05:12N 36°57' W 076°04'0 0.0
2014-Sep-27 03:30N 36°57' W 076°04'0 0.0
2014-Sep-27 02:33N 36°57' W 076°04'0 0.1
2014-Sep-27 01:30N 36°57' W 076°04'0 0.0
2014-Sep-27 00:12N 36°57' W 076°04'0 0.1
2014-Sep-26 23:27N 36°57' W 076°04'0 0.0
2014-Sep-26 22:30N 36°57' W 076°04'0 0.0
2014-Sep-26 21:21N 36°57' W 076°03'0 0.0
2014-Sep-26 19:09N 36°57' W 076°04'0 0.0
2014-Sep-26 18:27N 36°57' W 076°04'0 0.2
2014-Sep-26 17:21N 36°57' W 076°04'0 0.0
2014-Sep-26 16:09N 36°57' W 076°04'0 0.0
2014-Sep-26 14:30N 36°57' W 076°04'0 0.0
2014-Sep-26 10:30N 36°57' W 076°04'0 0.1
2014-Sep-26 09:18N 36°57' W 076°04'0 0.1
2014-Sep-26 08:24N 36°57' W 076°03'0 0.0
2014-Sep-26 07:30N 36°57' W 076°03'0 0.0
2014-Sep-26 06:24N 36°57' W 076°03'0 0.0
2014-Sep-26 01:27N 36°57' W 076°04'0 0.1
2014-Sep-26 00:30N 36°57' W 076°04'0 0.1
2014-Sep-25 23:27N 36°57' W 076°03'0 0.0
2014-Sep-25 21:09N 36°57' W 076°03'0 0.0
2014-Sep-25 20:12N 36°57' W 076°03'0 0.0
2014-Sep-25 16:03N 36°57' W 076°03'0 0.1
2014-Sep-25 15:30N 36°57' W 076°04'0 0.0
2014-Sep-25 13:03N 36°57' W 076°04'0 0.0
2014-Sep-25 12:03N 36°57' W 076°04'0 0.0
2014-Sep-25 09:30N 36°57' W 076°03'0 0.0
2014-Sep-25 07:30N 36°57' W 076°03'0 0.1
2014-Sep-25 04:30N 36°57' W 076°04'0 0.0
2014-Sep-25 03:27N 36°57' W 076°04'0 0.0
2014-Sep-25 00:30N 36°57' W 076°04'0 0.1
2014-Sep-24 23:18N 36°57' W 076°04'0 0.0
2014-Sep-24 22:30N 36°57' W 076°04'0 0.0
2014-Sep-24 19:09N 36°57' W 076°04'0 0.0
2014-Sep-24 18:27N 36°57' W 076°04'0 0.1
2014-Sep-24 17:30N 36°57' W 076°04'0 0.0
2014-Sep-24 16:09N 36°57' W 076°04'0 0.0
2014-Sep-24 15:18N 36°57' W 076°04'0 0.1
2014-Sep-24 14:27N 36°57' W 076°04'0 0.0
2014-Sep-24 04:21N 36°57' W 076°04'0 0.0
2014-Sep-24 03:33N 36°57' W 076°04'0 0.0
2014-Sep-24 00:24N 36°57' W 076°04'0 0.0
2014-Sep-23 22:30N 36°57' W 076°04'0 0.1
2014-Sep-23 21:06N 36°57' W 076°04'0 0.0
2014-Sep-23 20:33N 36°57' W 076°04'0 0.1
2014-Sep-23 18:24N 36°57' W 076°03'0 0.1
2014-Sep-23 16:33N 36°57' W 076°04'0 0.1
2014-Sep-23 15:18N 36°57' W 076°04'0 0.0
2014-Sep-23 14:18N 36°57' W 076°04'0 0.0
2014-Sep-23 13:30N 36°57' W 076°04'0 0.0
2014-Sep-23 09:30N 36°57' W 076°04'0 0.0
2014-Sep-23 08:12N 36°57' W 076°04'0 0.0
2014-Sep-23 05:16N 36°57' W 076°03'1 1.7
2014-Sep-23 04:30N 36°57' W 076°02'8 8.6
2014-Sep-23 03:31N 36°53' W 075°52'16211.4
2014-Sep-22 13:19N 38°14' W 072°55'911.7
2014-Sep-22 12:33N 38°19' W 072°46'1211.6
2014-Sep-22 11:33N 38°25' W 072°33'1110.8
2014-Sep-22 10:33N 38°31' W 072°21'1110.7
2014-Sep-22 09:33N 38°37' W 072°10'1010.1
2014-Sep-22 08:33N 38°42' W 071°59'10 9.9
2014-Sep-22 07:33N 38°48' W 071°49'1010.1
2014-Sep-22 06:33N 38°54' W 071°38'1010.1
2014-Sep-22 05:33N 38°59' W 071°27'1010.4
2014-Sep-22 04:33N 39°05' W 071°16'1010.4
2014-Sep-22 03:33N 39°10' W 071°05'1110.9
2014-Sep-22 02:30N 39°17' W 070°52'7 7.5
2014-Sep-22 01:31N 39°21' W 070°44'1111.7
2014-Sep-22 00:32N 39°15' W 070°57'1211.3
2014-Sep-21 23:28N 39°21' W 070°44'6710.9
2014-Sep-21 17:23N 39°58' W 069°32'8 9.4
2014-Sep-21 16:33N 39°53' W 069°40'1111.3
2014-Sep-21 15:33N 39°60' W 069°27'1111.4
2014-Sep-21 14:33N 40°06' W 069°15'1111.4
2014-Sep-21 13:33N 40°12' W 069°03'4 4.2
2014-Sep-21 12:32N 40°10' W 069°07'1212.0
2014-Sep-21 11:33N 40°17' W 068°54'1212.2
2014-Sep-21 10:33N 40°23' W 068°41'1312.7
2014-Sep-21 09:33N 40°30' W 068°27'1312.9
2014-Sep-21 08:33N 40°37' W 068°12'1312.7
2014-Sep-21 07:33N 40°44' W 067°59'1312.9
2014-Sep-21 06:33N 40°51' W 067°44'1312.7
2014-Sep-21 05:33N 40°58' W 067°30'1212.3
2014-Sep-21 04:33N 41°05' W 067°17'  
Track history (hours):
 
Tides and Currents Weather Stations Pressure Air Temp Water Temp Dewpoint Dewpoint Depression Visibility Wind Speed Wind Dir Waves Ship Positions

Marinicki

Last reported at 2014-Sep-30 09:03 UTC. Time now 2014-Oct-01 20:20 UTC.
Position N 36°48' W 075°40'.

Length 218 m; draft 12.6 m.

Type: Ship. MMSI: 249650000.

Date/timePositionNaut miles runAvg speedWind from/ knotsBaromVisibWave heightAir tempDewpointWater temp
2014-Sep-30 09:03N 36°48' W 075°40'1610.5
2014-Sep-30 07:33N 36°56' W 075°57'1010.3
2014-Sep-30 06:33N 36°59' W 076°09'9 9.4
2014-Sep-30 05:33N 36°58' W 076°21'4 0.9
2014-Sep-30 01:07N 36°58' W 076°26'0 0.0
2014-Sep-30 00:19N 36°58' W 076°26'0 0.0
2014-Sep-29 20:19N 36°58' W 076°26'0 0.0
2014-Sep-29 18:25N 36°58' W 076°26'0 0.0
2014-Sep-29 11:04N 36°58' W 076°26'0 0.0
2014-Sep-29 10:31N 36°58' W 076°26'0 0.0
2014-Sep-29 09:31N 36°58' W 076°26'0 0.0
2014-Sep-29 08:31N 36°58' W 076°26'0 0.0
2014-Sep-29 07:31N 36°58' W 076°26'0 0.0
2014-Sep-29 06:31N 36°58' W 076°26'0 0.0
2014-Sep-29 05:31N 36°58' W 076°26'0 0.0
2014-Sep-29 04:31N 36°58' W 076°26'0 0.0
2014-Sep-29 03:28N 36°58' W 076°26'0 0.0
2014-Sep-29 02:28N 36°58' W 076°26'0 0.0
2014-Sep-29 01:31N 36°58' W 076°26'1 1.4
2014-Sep-29 00:33N 36°57' W 076°24'10 9.8
2014-Sep-28 23:32N 36°60' W 076°12'7 1.2
2014-Sep-28 17:09N 36°57' W 076°04'0 0.0
2014-Sep-28 13:33N 36°57' W 076°04'0 0.1
2014-Sep-28 12:27N 36°57' W 076°03'0 0.0
2014-Sep-28 11:27N 36°57' W 076°03'0 0.0
2014-Sep-28 10:30N 36°57' W 076°03'0 0.0
2014-Sep-28 09:27N 36°57' W 076°03'0 0.0
2014-Sep-28 08:15N 36°57' W 076°03'0 0.1
2014-Sep-28 04:30N 36°57' W 076°04'0 0.0
2014-Sep-28 03:15N 36°57' W 076°04'0 0.0
2014-Sep-27 21:33N 36°57' W 076°03'0 0.1
2014-Sep-27 17:33N 36°57' W 076°04'0 0.0
2014-Sep-27 16:27N 36°57' W 076°04'0 0.0
2014-Sep-27 14:12N 36°57' W 076°04'0 0.0
2014-Sep-27 13:09N 36°57' W 076°04'0 0.0
2014-Sep-27 06:33N 36°57' W 076°04'0 0.1
2014-Sep-27 05:12N 36°57' W 076°04'0 0.0
2014-Sep-27 03:30N 36°57' W 076°04'0 0.0
2014-Sep-27 02:33N 36°57' W 076°04'0 0.1
2014-Sep-27 01:30N 36°57' W 076°04'0 0.0
2014-Sep-27 00:12N 36°57' W 076°04'0 0.1
2014-Sep-26 23:27N 36°57' W 076°04'0 0.0
2014-Sep-26 22:30N 36°57' W 076°04'0 0.0
2014-Sep-26 21:21N 36°57' W 076°03'0 0.0
2014-Sep-26 19:09N 36°57' W 076°04'0 0.0
2014-Sep-26 18:27N 36°57' W 076°04'0 0.2
2014-Sep-26 17:21N 36°57' W 076°04'0 0.0
2014-Sep-26 16:09N 36°57' W 076°04'0 0.0
2014-Sep-26 14:30N 36°57' W 076°04'0 0.0
2014-Sep-26 10:30N 36°57' W 076°04'0 0.1
2014-Sep-26 09:18N 36°57' W 076°04'0 0.1
2014-Sep-26 08:24N 36°57' W 076°03'0 0.0
2014-Sep-26 07:30N 36°57' W 076°03'0 0.0
2014-Sep-26 06:24N 36°57' W 076°03'0 0.0
2014-Sep-26 01:27N 36°57' W 076°04'0 0.1
2014-Sep-26 00:30N 36°57' W 076°04'0 0.1
2014-Sep-25 23:27N 36°57' W 076°03'0 0.0
2014-Sep-25 21:09N 36°57' W 076°03'0 0.0
2014-Sep-25 20:12N 36°57' W 076°03'0 0.0
2014-Sep-25 16:03N 36°57' W 076°03'0 0.1
2014-Sep-25 15:30N 36°57' W 076°04'0 0.0
2014-Sep-25 13:03N 36°57' W 076°04'0 0.0
2014-Sep-25 12:03N 36°57' W 076°04'0 0.0
2014-Sep-25 09:30N 36°57' W 076°03'0 0.0
2014-Sep-25 07:30N 36°57' W 076°03'0 0.1
2014-Sep-25 04:30N 36°57' W 076°04'0 0.0
2014-Sep-25 03:27N 36°57' W 076°04'0 0.0
2014-Sep-25 00:30N 36°57' W 076°04'0 0.1
2014-Sep-24 23:18N 36°57' W 076°04'0 0.0
2014-Sep-24 22:30N 36°57' W 076°04'0 0.0
2014-Sep-24 19:09N 36°57' W 076°04'0 0.0
2014-Sep-24 18:27N 36°57' W 076°04'0 0.1
2014-Sep-24 17:30N 36°57' W 076°04'0 0.0
2014-Sep-24 16:09N 36°57' W 076°04'0 0.0
2014-Sep-24 15:18N 36°57' W 076°04'0 0.1
2014-Sep-24 14:27N 36°57' W 076°04'0 0.0
2014-Sep-24 04:21N 36°57' W 076°04'0 0.0
2014-Sep-24 03:33N 36°57' W 076°04'0 0.0
2014-Sep-24 00:24N 36°57' W 076°04'0 0.0
2014-Sep-23 22:30N 36°57' W 076°04'0 0.1
2014-Sep-23 21:06N 36°57' W 076°04'0 0.0
2014-Sep-23 20:33N 36°57' W 076°04'0 0.1
2014-Sep-23 18:24N 36°57' W 076°03'0 0.1
2014-Sep-23 16:33N 36°57' W 076°04'0 0.1
2014-Sep-23 15:18N 36°57' W 076°04'0 0.0
2014-Sep-23 14:18N 36°57' W 076°04'0 0.0
2014-Sep-23 13:30N 36°57' W 076°04'0 0.0
2014-Sep-23 09:30N 36°57' W 076°04'0 0.0
2014-Sep-23 08:12N 36°57' W 076°04'0 0.0
2014-Sep-23 05:16N 36°57' W 076°03'1 1.7
2014-Sep-23 04:30N 36°57' W 076°02'8 8.6
2014-Sep-23 03:31N 36°53' W 075°52'16211.4
2014-Sep-22 13:19N 38°14' W 072°55'911.7
2014-Sep-22 12:33N 38°19' W 072°46'1211.6
2014-Sep-22 11:33N 38°25' W 072°33'1110.8
2014-Sep-22 10:33N 38°31' W 072°21'1110.7
2014-Sep-22 09:33N 38°37' W 072°10'1010.1
2014-Sep-22 08:33N 38°42' W 071°59'10 9.9
2014-Sep-22 07:33N 38°48' W 071°49'1010.1
2014-Sep-22 06:33N 38°54' W 071°38'1010.1
2014-Sep-22 05:33N 38°59' W 071°27'1010.4
2014-Sep-22 04:33N 39°05' W 071°16'1010.4
2014-Sep-22 03:33N 39°10' W 071°05'1110.9
2014-Sep-22 02:30N 39°17' W 070°52'7 7.5
2014-Sep-22 01:31N 39°21' W 070°44'1111.7
2014-Sep-22 00:32N 39°15' W 070°57'1211.3
2014-Sep-21 23:28N 39°21' W 070°44'6710.9
2014-Sep-21 17:23N 39°58' W 069°32'8 9.4
2014-Sep-21 16:33N 39°53' W 069°40'1111.3
2014-Sep-21 15:33N 39°60' W 069°27'1111.4
2014-Sep-21 14:33N 40°06' W 069°15'1111.4
2014-Sep-21 13:33N 40°12' W 069°03'4 4.2
2014-Sep-21 12:32N 40°10' W 069°07'1212.0
2014-Sep-21 11:33N 40°17' W 068°54'1212.2
2014-Sep-21 10:33N 40°23' W 068°41'1312.7
2014-Sep-21 09:33N 40°30' W 068°27'1312.9
2014-Sep-21 08:33N 40°37' W 068°12'1312.7
2014-Sep-21 07:33N 40°44' W 067°59'1312.9
2014-Sep-21 06:33N 40°51' W 067°44'1312.7
2014-Sep-21 05:33N 40°58' W 067°30'1212.3
2014-Sep-21 04:33N 41°05' W 067°17'  

Dump ship's entire track history